Grand Canyon National Park, AZ

12:33 PM MST on September 16, 2014 (GMT -0700)
KAZGRAND3 | Change Station
CLOSE
Current Station
Personal Weather Station
Location: Grand Canyon, AZ
Elevation: 6991 ft
Nearby Weather Stations

Elev 6991 ft 36.05 °N, 112.12 °W | Updated 10 seconds ago

Partly Cloudy
Partly Cloudy
76.0 °F
Feels Like 77 °F
N
0.0
Wind Variable Wind from NNW
Gusts 3.0 mph

Today
High -- | Low -- °F
--% Chance of Precip.
Yesterday
High -- | Low -- °F
Precip. -- in
6:11 AM 6:34 PM
Last Quarter, 43% visible
Pressure 30.01 in
Visibility 10.0 miles
Clouds Scattered Clouds 7000 ft
Heat Index 77 °F
Dew Point 44 °F
Humidity 32%
Rainfall 0.00 in
Snow Depth 1 in , 0 in
UV 8 out of 12
Pollen 4.90 out of 12
Air Quality Not available.
Flu Activity Not available.
METAR KGCN 161854Z 01006KT 10SM SCT070 25/07 A3028 RMK AO2 SLP161 T02500072

More Conditions Fewer Conditions

Pressure 30.01 in
Visibility 10.0 miles
Clouds Scattered Clouds 7000 ft
Heat Index 77 °F
Dew Point 44 °F
Humidity 32%
Rainfall 0.00 in
Snow Depth 1 in , 0 in
UV 8 out of 12
Pollen 4.90 out of 12
Air Quality Not available.
Flu Activity Not available.
METAR KGCN 161854Z 01006KT 10SM SCT070 25/07 A3028 RMK AO2 SLP161 T02500072

More Conditions Fewer Conditions

10-Day Weather Forecast

Almanac

Astronomy

Sep. 16, 2014 Rise Set
Actual Time 6:11 AM MST 6:34 PM MST
Civil Twilight 5:46 AM MST 6:59 PM MST
Nautical Twilight 5:16 AM MST 7:29 PM MST
Astronomical Twilight 4:45 AM MST 8:00 PM MST
Moon No Moon Rise 1:53 PM MST
Length of Visible Light 13h 13m
Length of Day
12h 22m
Tomorrow will be 2m 16s shorter.
Last Quarter, 43% of the Moon is Illuminated
Today
Last Quarter
Sep 24
New
Oct 1
First Quarter
Oct 8
Full
Oct 15
Last Quarter

Today's Extremes

State Highs State Lows

Community

WunderPhotos

Upload Photos

1,753,860 photos uploaded!

Nearby

Snow Depth

Station Depth Elevation
Workman Creek 1 in 6900 ft
Beaver Head 24 in 7990 ft
Maverick Fork 0 in 9200 ft

Earthquake Activity

City Distance Mag. Time & Date
No recent earthquake activity has been reported nearby.
Minimum magnitude displayed is 2.5.

Coastal Water Temperatures

Place Temperature
No Stations Reporting

Nearby Weather Stations